METAR AND TAF INFORMATION
METAR FOR ZWWW
ADDS - METARS form results

(1917 UTC 20 June 2019)
Data provider http://aviationweather.gov/metar/data/
 
METAR text: ZWWW 201900Z VRB01MPS CAVOK 21/15 Q1014 NOSIG
Conditions at: ZWWW (URUM-QI/DIWOPU , CN) observed 1900 UTC 20 June 2019
Temperature: 21.0°C (70°F)
Dewpoint: 15.0°C (59°F) [RH = 69%]
Pressure (altimeter): 29.94 inches Hg (1014.0 mb)
Winds: variable direction winds at 2 MPH (2 knots; 1.0 m/s)
Visibility: 6 or more miles (10+ km)
Ceiling: ceiling and visibility are OK
Clouds: unknown
Weather: no significant weather observed at this time

METAR text: ZWWW 201830Z 16001MPS CAVOK 21/15 Q1014 NOSIG
Conditions at: ZWWW (URUM-QI/DIWOPU , CN) observed 1830 UTC 20 June 2019
Temperature: 21.0°C (70°F)
Dewpoint: 15.0°C (59°F) [RH = 69%]
Pressure (altimeter): 29.94 inches Hg (1014.0 mb)
Winds: from the SSE (160 degrees) at 2 MPH (2 knots; 1.0 m/s)
Visibility: 6 or more miles (10+ km)
Ceiling: ceiling and visibility are OK
Clouds: unknown
Weather: no significant weather observed at this time

Forecast for: ZWWW (URUM-QI/DIWOPU , CN)
Text: TAF ZWWW 201502Z 2018/2118 25004MPS CAVOK TX28/2109Z TN18/2023Z
Forecast period: 1800 UTC 20 June 2019 to 0200 UTC 21 June 2019
Forecast type: FROM: standard forecast or significant change
Winds: from the WSW (250 degrees) at 9 MPH (8 knots; 4.1 m/s)
Visibility: 6 or more miles 10+ km)
Ceiling: unknown
Clouds: missing
Weather: no significant weather forecast for this period
Text: BECMG 2102/2103 02004MPS
Forecast period: 0200 to 1300 UTC 21 June 2019
Forecast type: BECOMING: Conditions expected to become as follows by 0300 UTC 21 June 2019
Winds: from the NNE (20 degrees) at 9 MPH (8 knots; 4.1 m/s)
Visibility: 6 or more miles 10+ km)
Ceiling: unknown
Clouds: missing
Weather: no significant weather forecast for this period
Text: BECMG 2113/2114 18004MPS
Forecast period: 1300 to 1800 UTC 21 June 2019
Forecast type: BECOMING: Conditions expected to become as follows by 1400 UTC 21 June 2019
Winds: from the S (180 degrees) at 9 MPH (8 knots; 4.1 m/s)
Visibility: 6 or more miles 10+ km)
Ceiling: unknown
Clouds: missing
Weather: no significant weather forecast for this period

 AIRPORT MAP

 RUNWAY INFORMATION
Runway 07 Runway length 11811 ft Runway width 148 ft
Runway elevation 2123 ft Runway displaced threshold 0 ft Runway heading 74
Runway 25 Runway length 11811 ft Runway width 148 ft
Runway elevation 2126 ft Runway displaced threshold 0 ft Runway heading 254

 AIRPORT FREQUENCIES
Type ATIS Name ATIS Frequency 126.7 MHZ
Type GND Name GND Frequency 121.65 MHZ
Type TWR Name TWR Frequency 118.1 MHZ

 AIRPORT NEAR NAVIGATION AIDS
Type NDB Name Fukang Frequency 369 KHZ
Type VOR-DME Name Fukang Frequency 116300 KHZ
Type VOR-DME Name Urumqi Frequency 115700 KHZ



Powered by Virtual Airlines Manager [v2.6.2]